createdAt,value
2023-02-12T00:01:33.716Z,24.79
2023-02-12T00:04:23.783Z,24.72
2023-02-12T00:07:12.444Z,24.68
2023-02-12T00:10:01.098Z,24.66
2023-02-12T00:12:49.831Z,24.61
2023-02-12T00:15:40.496Z,24.64
2023-02-12T00:18:29.203Z,24.70
2023-02-12T00:21:19.341Z,24.67
2023-02-12T00:24:08.309Z,24.69
2023-02-12T00:26:56.977Z,24.69
2023-02-12T00:29:45.590Z,24.66
2023-02-12T00:32:34.207Z,24.71
2023-02-12T00:35:22.851Z,24.74
2023-02-12T00:38:12.886Z,24.65
2023-02-12T00:41:01.543Z,24.69
2023-02-12T00:43:50.328Z,24.66
2023-02-12T00:46:39.089Z,24.69
2023-02-12T00:49:27.927Z,24.65
2023-02-12T00:52:16.686Z,24.65
2023-02-12T00:55:07.427Z,24.70
2023-02-12T00:57:56.127Z,24.66
2023-02-12T01:00:44.789Z,24.62
2023-02-12T01:03:33.476Z,24.63
2023-02-12T01:06:22.501Z,24.64
2023-02-12T01:09:11.120Z,24.64
2023-02-12T01:12:01.166Z,24.64
2023-02-12T01:14:49.954Z,24.61
2023-02-12T01:17:38.893Z,24.62
2023-02-12T01:20:27.888Z,24.65
2023-02-12T01:23:16.569Z,24.58
2023-02-12T01:26:07.454Z,24.55
2023-02-12T01:28:59.071Z,24.58
2023-02-12T01:31:47.862Z,24.58
2023-02-12T01:34:36.528Z,24.59
2023-02-12T01:37:25.218Z,24.56
2023-02-12T01:40:17.003Z,24.57
2023-02-12T01:43:06.125Z,24.62
2023-02-12T01:45:56.585Z,24.61
2023-02-12T01:48:47.217Z,24.63
2023-02-12T01:51:36.782Z,24.55
2023-02-12T01:54:26.863Z,24.55
2023-02-12T01:57:16.240Z,24.59
2023-02-12T02:00:09.812Z,24.57
2023-02-12T02:03:02.137Z,24.54
2023-02-12T02:05:56.981Z,24.59
2023-02-12T02:08:45.942Z,24.55
2023-02-12T02:11:52.372Z,24.58
2023-02-12T02:14:42.971Z,24.52
2023-02-12T02:17:39.434Z,24.49
2023-02-12T02:20:43.932Z,24.47
2023-02-12T02:23:43.928Z,24.48
2023-02-12T02:26:56.324Z,24.52
2023-02-12T02:30:23.357Z,24.52
2023-02-12T02:33:31.320Z,24.44
2023-02-12T02:36:27.888Z,24.54
2023-02-12T02:39:20.994Z,24.52
2023-02-12T02:42:12.945Z,24.48
2023-02-12T02:45:08.618Z,24.44
2023-02-12T02:48:01.420Z,24.48
2023-02-12T02:50:54.993Z,24.44
2023-02-12T02:53:46.730Z,24.51
2023-02-12T02:56:37.922Z,24.50
2023-02-12T02:59:29.148Z,24.48
2023-02-12T03:02:21.193Z,24.50
2023-02-12T03:05:12.178Z,24.48
2023-02-12T03:08:05.498Z,24.48
2023-02-12T03:10:57.372Z,24.49
2023-02-12T03:13:49.602Z,24.48
2023-02-12T03:16:47.498Z,24.48
2023-02-12T03:19:39.118Z,24.49
2023-02-12T03:22:30.587Z,24.50
2023-02-12T03:25:23.400Z,24.48
2023-02-12T03:28:16.944Z,24.48
2023-02-12T03:31:10.520Z,24.49
2023-02-12T03:34:07.775Z,24.49
2023-02-12T03:36:58.974Z,24.51
2023-02-12T03:39:53.302Z,24.47
2023-02-12T03:42:47.998Z,24.43
2023-02-12T03:45:42.433Z,24.43
2023-02-12T03:48:35.759Z,24.43
2023-02-12T03:51:27.359Z,24.49
2023-02-12T03:54:18.596Z,24.39
2023-02-12T03:57:10.329Z,24.46
2023-02-12T04:00:00.897Z,24.49
2023-02-12T04:02:50.050Z,24.44
2023-02-12T04:05:38.682Z,24.46
2023-02-12T04:08:29.150Z,24.48
2023-02-12T04:11:26.471Z,24.41
2023-02-12T04:14:24.637Z,24.44
2023-02-12T04:17:23.096Z,24.38
2023-02-12T04:20:16.910Z,24.37
2023-02-12T04:23:12.814Z,24.39
2023-02-12T04:26:10.748Z,24.38
2023-02-12T04:29:11.126Z,24.41
2023-02-12T04:32:06.734Z,24.44
2023-02-12T04:34:59.568Z,24.40
2023-02-12T04:37:50.437Z,24.42
2023-02-12T04:40:40.801Z,24.40
2023-02-12T04:43:31.023Z,24.38
2023-02-12T04:46:19.755Z,24.36
2023-02-12T04:49:08.687Z,24.39
2023-02-12T04:51:58.797Z,24.41
2023-02-12T04:54:47.564Z,24.43
2023-02-12T04:57:36.315Z,24.40
2023-02-12T05:00:25.207Z,24.41
2023-02-12T05:03:13.830Z,24.42
2023-02-12T05:06:04.921Z,24.43
2023-02-12T05:08:55.709Z,24.44
2023-02-12T05:11:44.504Z,24.43
2023-02-12T05:14:33.138Z,24.39
2023-02-12T05:17:23.700Z,24.39
2023-02-12T05:20:13.209Z,24.35
2023-02-12T05:23:01.820Z,24.36
2023-02-12T05:25:51.739Z,24.37
2023-02-12T05:28:40.464Z,24.36
2023-02-12T05:31:29.342Z,24.37
2023-02-12T05:34:18.226Z,24.34
2023-02-12T05:37:06.874Z,24.37
2023-02-12T05:39:55.541Z,24.35
2023-02-12T05:42:45.545Z,24.40
2023-02-12T05:45:34.355Z,24.40
2023-02-12T05:48:23.009Z,24.44
2023-02-12T05:51:14.230Z,24.46
2023-02-12T05:54:04.576Z,24.45
2023-02-12T05:56:53.253Z,24.38
2023-02-12T05:59:43.295Z,24.40
2023-02-12T06:02:32.064Z,24.43
2023-02-12T06:05:20.726Z,24.39
2023-02-12T06:08:09.459Z,24.40
2023-02-12T06:11:02.346Z,24.41
2023-02-12T06:13:51.372Z,24.42
2023-02-12T06:16:41.755Z,24.42
2023-02-12T06:19:30.561Z,24.40
2023-02-12T06:22:19.211Z,24.38
2023-02-12T06:25:08.619Z,24.40
2023-02-12T06:27:57.332Z,24.31
2023-02-12T06:30:46.144Z,24.35
2023-02-12T06:33:36.336Z,24.32
2023-02-12T06:36:26.006Z,24.37
2023-02-12T06:39:15.894Z,24.35
2023-02-12T06:42:04.665Z,24.37
2023-02-12T06:44:53.285Z,24.39
2023-02-12T06:47:42.009Z,24.36
2023-02-12T06:50:32.190Z,24.39
2023-02-12T06:53:20.922Z,24.38
2023-02-12T06:56:11.654Z,24.38
2023-02-12T06:59:01.123Z,24.38
2023-02-12T07:01:49.756Z,24.37
2023-02-12T07:04:39.661Z,24.37
2023-02-12T07:07:29.695Z,24.37
2023-02-12T07:10:18.731Z,24.38
2023-02-12T07:13:07.408Z,24.34
2023-02-12T07:15:56.317Z,24.35
2023-02-12T07:18:46.564Z,24.37
2023-02-12T07:21:35.304Z,24.37
2023-02-12T07:24:25.382Z,24.39
2023-02-12T07:27:13.958Z,24.36
2023-02-12T07:30:02.634Z,24.33
2023-02-12T07:32:51.225Z,24.30
2023-02-12T07:35:39.907Z,24.31
2023-02-12T07:38:28.628Z,24.31
2023-02-12T07:41:20.880Z,24.31
2023-02-12T07:44:12.493Z,24.30
2023-02-12T07:47:01.132Z,24.36
2023-02-12T07:49:49.658Z,24.30
2023-02-12T07:52:38.227Z,24.30
2023-02-12T07:55:26.886Z,24.35
2023-02-12T07:58:16.797Z,24.31
2023-02-12T08:01:13.846Z,24.34
2023-02-12T08:04:04.196Z,24.23
2023-02-12T08:06:54.727Z,24.25
2023-02-12T08:09:43.406Z,24.33
2023-02-12T08:12:31.942Z,24.27
2023-02-12T08:15:21.935Z,24.26
2023-02-12T08:18:10.485Z,24.19
2023-02-12T08:21:03.904Z,24.22
2023-02-12T08:23:53.049Z,24.22
2023-02-12T08:26:41.696Z,24.21
2023-02-12T08:29:31.527Z,24.26
2023-02-12T08:32:21.579Z,24.20
2023-02-12T08:35:10.231Z,24.22
2023-02-12T08:37:58.840Z,24.22
2023-02-12T08:40:47.551Z,24.24
2023-02-12T08:43:36.349Z,24.22
2023-02-12T08:46:26.503Z,24.20
2023-02-12T08:49:17.796Z,24.25
2023-02-12T08:52:06.524Z,24.22
2023-02-12T08:54:55.311Z,24.20
2023-02-12T08:57:44.214Z,24.18
2023-02-12T09:00:32.927Z,24.14
2023-02-12T09:03:21.647Z,24.24
2023-02-12T09:06:12.118Z,24.29
2023-02-12T09:09:00.928Z,24.59
2023-02-12T09:11:49.962Z,24.66
2023-02-12T09:14:38.603Z,24.68
2023-02-12T09:17:27.817Z,24.85
2023-02-12T09:20:16.668Z,24.79
2023-02-12T09:23:06.945Z,25.04
2023-02-12T09:25:56.342Z,25.13
2023-02-12T09:28:45.329Z,25.24
2023-02-12T09:31:34.979Z,25.25
2023-02-12T09:34:23.675Z,25.26
2023-02-12T09:37:12.368Z,25.35
2023-02-12T09:40:02.291Z,25.29
2023-02-12T09:43:06.389Z,25.31
2023-02-12T09:46:00.236Z,25.37
2023-02-12T09:48:56.490Z,25.35
2023-02-12T09:51:50.993Z,25.32
2023-02-12T09:54:42.549Z,25.35
2023-02-12T09:57:35.715Z,25.35
2023-02-12T10:00:31.362Z,25.30
2023-02-12T10:03:20.282Z,25.25
2023-02-12T10:06:17.174Z,25.22
2023-02-12T10:09:17.317Z,25.11
2023-02-12T10:12:09.663Z,25.08
2023-02-12T10:15:07.137Z,24.97
2023-02-12T10:18:03.640Z,24.97
2023-02-12T10:21:00.275Z,24.91
2023-02-12T10:24:03.408Z,24.89
2023-02-12T10:26:54.714Z,24.89
2023-02-12T10:29:44.931Z,24.86
2023-02-12T10:32:37.013Z,24.72
2023-02-12T10:35:26.030Z,24.80
2023-02-12T10:38:19.621Z,24.93
2023-02-12T10:41:08.416Z,25.28
2023-02-12T10:43:57.510Z,25.32
2023-02-12T10:46:46.369Z,25.40
2023-02-12T10:49:36.823Z,25.51
2023-02-12T10:52:34.943Z,25.62
2023-02-12T10:55:30.939Z,25.63
2023-02-12T10:58:23.087Z,25.76
2023-02-12T11:01:18.627Z,25.75
2023-02-12T11:04:22.169Z,25.77
2023-02-12T11:07:12.145Z,25.88
2023-02-12T11:10:01.045Z,25.92
2023-02-12T11:12:49.681Z,25.94
2023-02-12T11:15:48.190Z,25.95
2023-02-12T11:18:37.954Z,25.96
2023-02-12T11:21:26.646Z,25.96
2023-02-12T11:24:34.381Z,26.00
2023-02-12T11:27:25.429Z,26.03
2023-02-12T11:30:19.703Z,26.01
2023-02-12T11:33:17.579Z,26.04
2023-02-12T11:36:13.576Z,26.00
2023-02-12T11:39:03.159Z,25.96
2023-02-12T11:41:56.221Z,25.80
2023-02-12T11:44:50.635Z,25.57
2023-02-12T11:47:42.893Z,25.19
2023-02-12T11:50:34.009Z,25.19
2023-02-12T11:53:26.583Z,25.25
2023-02-12T11:56:16.413Z,25.13
2023-02-12T11:59:19.991Z,25.15
2023-02-12T12:02:28.084Z,25.05
2023-02-12T12:05:21.343Z,25.05
2023-02-12T12:08:29.123Z,25.18
2023-02-12T12:11:22.950Z,25.16
2023-02-12T12:14:19.689Z,25.05
2023-02-12T12:17:32.239Z,24.90
2023-02-12T12:20:24.810Z,24.85
2023-02-12T12:23:18.162Z,24.78
2023-02-12T12:26:10.876Z,24.99
2023-02-12T12:29:06.492Z,25.49
2023-02-12T12:32:00.257Z,25.65
2023-02-12T12:34:49.514Z,25.68
2023-02-12T12:37:40.376Z,25.77
2023-02-12T12:40:45.236Z,25.82
2023-02-12T12:43:42.453Z,25.67
2023-02-12T12:46:43.583Z,25.56
2023-02-12T12:49:55.000Z,25.77
2023-02-12T12:52:59.533Z,25.97
2023-02-12T12:56:05.563Z,26.00
2023-02-12T12:59:17.329Z,26.05
2023-02-12T13:02:46.352Z,26.11
2023-02-12T13:05:58.513Z,26.09
2023-02-12T13:09:10.454Z,26.03
2023-02-12T13:12:30.363Z,26.13
2023-02-12T13:15:26.489Z,26.11
2023-02-12T13:18:22.989Z,26.16
2023-02-12T13:21:18.378Z,26.20
2023-02-12T13:24:17.784Z,26.22
2023-02-12T13:27:12.908Z,26.23
2023-02-12T13:30:05.846Z,26.22
2023-02-12T13:33:04.290Z,26.22
2023-02-12T13:36:00.237Z,26.16
2023-02-12T13:38:54.915Z,25.77
2023-02-12T13:41:49.760Z,25.69
2023-02-12T13:44:44.549Z,26.04
2023-02-12T13:47:40.925Z,26.13
2023-02-12T13:50:42.004Z,25.92
2023-02-12T13:53:37.574Z,26.00
2023-02-12T13:56:35.589Z,26.03
2023-02-12T13:59:50.367Z,26.04
2023-02-12T14:02:59.206Z,26.10
2023-02-12T14:06:10.998Z,26.23
2023-02-12T14:20:14.407Z,26.49
2023-02-12T14:23:25.329Z,26.46
2023-02-12T14:26:19.374Z,26.43
2023-02-12T14:29:21.702Z,26.44
2023-02-12T14:32:58.937Z,26.38
2023-02-12T14:36:33.170Z,26.42
2023-02-12T14:39:34.648Z,26.47
2023-02-12T14:42:46.977Z,26.45
2023-02-12T14:45:38.534Z,26.47
2023-02-12T14:48:53.032Z,26.46
2023-02-12T14:51:49.970Z,26.25
2023-02-12T14:54:51.777Z,26.38
2023-02-12T14:57:44.648Z,26.30
2023-02-12T15:12:21.175Z,26.46
2023-02-12T16:22:22.742Z,26.43
2023-02-12T16:30:15.120Z,26.48
2023-02-12T16:33:38.593Z,26.58
2023-02-12T16:36:36.762Z,26.48
2023-02-12T16:40:07.304Z,26.47
2023-02-12T16:43:26.826Z,26.48
2023-02-12T16:46:22.843Z,26.57
2023-02-12T16:49:17.952Z,26.58
2023-02-12T16:52:23.203Z,26.44
2023-02-12T16:55:19.731Z,26.45
2023-02-12T16:58:11.800Z,26.40
2023-02-12T17:01:08.192Z,26.50
2023-02-12T17:04:31.298Z,26.52
2023-02-12T17:07:24.396Z,26.56
2023-02-12T17:10:24.904Z,26.68
2023-02-12T17:13:14.587Z,26.68
2023-02-12T17:16:12.709Z,26.64
2023-02-12T18:24:16.138Z,26.41
2023-02-12T18:27:05.744Z,26.50
2023-02-12T18:29:59.408Z,26.53
2023-02-12T18:32:48.926Z,26.55
2023-02-12T18:38:51.076Z,26.62
2023-02-12T18:41:41.168Z,26.78
2023-02-12T18:44:30.888Z,26.72
2023-02-12T18:47:24.507Z,26.72
2023-02-12T18:50:42.571Z,26.78
2023-02-12T18:53:46.853Z,26.82
2023-02-12T19:00:20.402Z,26.69
2023-02-12T19:04:01.704Z,26.76
2023-02-12T19:06:59.232Z,26.72
2023-02-12T19:10:02.137Z,26.74
2023-02-12T19:12:53.418Z,26.77
2023-02-12T19:16:18.301Z,26.58
2023-02-12T19:20:05.417Z,26.64
2023-02-12T19:23:14.416Z,26.75
2023-02-12T19:26:07.275Z,26.80
2023-02-12T19:29:03.247Z,26.75
2023-02-12T19:31:52.906Z,26.79
2023-02-12T19:34:42.660Z,26.82
2023-02-12T19:37:33.283Z,26.80
2023-02-12T19:40:23.359Z,26.64
2023-02-12T19:43:13.415Z,26.69
2023-02-12T19:46:11.665Z,26.76
2023-02-12T19:49:27.094Z,26.80
2023-02-12T19:56:20.744Z,26.82
2023-02-12T19:59:10.772Z,26.78
2023-02-12T20:02:03.019Z,26.44
2023-02-12T20:04:54.996Z,26.02
2023-02-12T20:07:45.339Z,26.00
2023-02-12T20:10:35.328Z,26.11
2023-02-12T20:13:59.896Z,26.41
2023-02-12T20:16:55.699Z,26.50
2023-02-12T20:19:48.367Z,26.52
2023-02-12T20:26:00.968Z,26.63
2023-02-12T20:28:52.445Z,26.77
2023-02-12T20:31:43.056Z,26.82
2023-02-12T20:34:49.050Z,26.86
2023-02-12T20:37:42.397Z,26.78
2023-02-12T20:40:32.894Z,26.85
2023-02-12T20:43:26.473Z,26.85
2023-02-12T20:46:17.626Z,26.93
2023-02-12T20:49:09.553Z,26.75
2023-02-12T20:51:58.960Z,26.72
2023-02-12T20:54:49.892Z,26.87
2023-02-12T20:57:40.071Z,26.92
2023-02-12T21:00:29.906Z,26.90
2023-02-12T21:03:20.774Z,26.87
2023-02-12T21:06:10.893Z,26.88
2023-02-12T21:09:01.733Z,26.87
2023-02-12T21:11:53.582Z,26.85
2023-02-12T21:14:49.115Z,26.73
2023-02-12T21:17:38.835Z,26.82
2023-02-12T21:20:28.820Z,26.83
2023-02-12T21:23:18.518Z,26.34
2023-02-12T21:26:15.892Z,26.47
2023-02-12T21:29:09.458Z,26.57
2023-02-12T21:36:42.463Z,26.75
2023-02-12T21:39:32.359Z,26.63
2023-02-12T21:42:48.224Z,26.46
2023-02-12T21:45:39.704Z,26.66
2023-02-12T21:48:29.692Z,26.68
2023-02-12T21:51:20.777Z,26.29
2023-02-12T21:54:11.856Z,26.57
2023-02-12T21:57:01.585Z,26.48
2023-02-12T22:00:12.116Z,26.49
2023-02-12T22:03:04.658Z,26.46
2023-02-12T22:05:56.090Z,26.31
2023-02-12T22:08:45.494Z,26.30
2023-02-12T22:11:36.138Z,26.39
2023-02-12T22:14:24.886Z,26.34
2023-02-12T22:17:14.203Z,26.55
2023-02-12T23:44:56.150Z,25.06
2023-02-12T23:48:10.943Z,25.14
